createdAt,value
2018-12-19T00:00:20.454Z,-2.73
2018-12-19T00:04:24.557Z,-2.75
2018-12-19T00:08:28.541Z,-2.76
2018-12-19T00:12:32.710Z,-2.79
2018-12-19T00:16:36.714Z,-2.83
2018-12-19T00:20:40.946Z,-2.87
2018-12-19T00:24:44.937Z,-2.88
2018-12-19T00:28:49.087Z,-2.93
2018-12-19T00:32:53.070Z,-2.93
2018-12-19T00:36:57.233Z,-2.96
2018-12-19T00:41:01.218Z,-2.94
2018-12-19T00:45:05.373Z,-2.89
2018-12-19T00:49:09.367Z,-2.93
2018-12-19T00:53:13.517Z,-2.92
2018-12-19T00:57:17.494Z,-2.99
2018-12-19T01:01:21.658Z,-3.01
2018-12-19T01:05:25.633Z,-3.01
2018-12-19T01:09:29.732Z,-3.04
2018-12-19T01:13:33.705Z,-3.06
2018-12-19T01:17:37.941Z,-3.11
2018-12-19T01:21:41.917Z,-3.13
2018-12-19T01:25:47.017Z,-3.18
2018-12-19T01:29:50.988Z,-3.21
2018-12-19T01:33:55.153Z,-3.27
2018-12-19T01:37:59.140Z,-3.32
2018-12-19T01:42:03.289Z,-3.40
2018-12-19T01:46:07.269Z,-3.49
2018-12-19T01:50:11.438Z,-3.56
2018-12-19T01:54:15.409Z,-3.62
2018-12-19T01:58:19.517Z,-3.66
2018-12-19T02:02:23.497Z,-3.69
2018-12-19T02:06:27.623Z,-3.77
2018-12-19T02:10:31.602Z,-3.82
2018-12-19T02:14:35.761Z,-3.86
2018-12-19T02:18:39.792Z,-3.90
2018-12-19T02:22:44.001Z,-3.92
2018-12-19T02:26:48.001Z,-3.96
2018-12-19T02:30:52.141Z,-4.00
2018-12-19T02:34:56.134Z,-4.03
2018-12-19T02:39:00.293Z,-4.08
2018-12-19T02:43:04.354Z,-4.11
2018-12-19T02:47:08.536Z,-4.13
2018-12-19T02:51:12.515Z,-4.15
2018-12-19T02:55:16.575Z,-4.13
2018-12-19T02:59:20.552Z,-4.12
2018-12-19T03:03:24.721Z,-4.15
2018-12-19T03:07:28.698Z,-4.15
2018-12-19T03:11:32.896Z,-4.15
2018-12-19T03:15:36.853Z,-4.19
2018-12-19T03:19:41.101Z,-4.24
2018-12-19T03:23:45.079Z,-4.29
2018-12-19T03:27:49.246Z,-4.35
2018-12-19T03:31:53.231Z,-4.47
2018-12-19T03:35:57.390Z,-4.50
2018-12-19T03:40:01.374Z,-4.53
2018-12-19T03:44:05.442Z,-4.55
2018-12-19T03:48:11.418Z,-4.53
2018-12-19T03:52:15.509Z,-4.54
2018-12-19T03:56:19.504Z,-4.57
2018-12-19T04:00:23.662Z,-4.56
2018-12-19T04:04:27.637Z,-4.61
2018-12-19T04:08:31.803Z,-4.64
2018-12-19T04:12:35.788Z,-4.69
2018-12-19T04:16:39.937Z,-4.77
2018-12-19T04:20:43.977Z,-4.77
2018-12-19T04:24:48.092Z,-4.78
2018-12-19T04:28:52.190Z,-4.78
2018-12-19T04:32:56.533Z,-4.80
2018-12-19T04:37:00.524Z,-4.83
2018-12-19T04:41:04.675Z,-4.88
2018-12-19T04:45:08.663Z,-4.93
2018-12-19T04:49:12.837Z,-4.97
2018-12-19T04:53:16.818Z,-5.02
2018-12-19T04:57:20.957Z,-5.07
2018-12-19T05:01:24.954Z,-5.13
2018-12-19T05:05:29.101Z,-5.16
2018-12-19T05:09:33.093Z,-5.17
2018-12-19T05:13:37.252Z,-5.19
2018-12-19T05:17:41.238Z,-5.27
2018-12-19T05:21:45.506Z,-5.35
2018-12-19T05:25:49.482Z,-5.38
2018-12-19T05:29:53.633Z,-5.43
2018-12-19T05:33:57.622Z,-5.43
2018-12-19T05:38:01.774Z,-5.44
2018-12-19T05:42:05.770Z,-5.44
2018-12-19T05:46:09.914Z,-5.47
2018-12-19T05:50:15.393Z,-5.50
2018-12-19T05:54:19.494Z,-5.56
2018-12-19T05:58:23.490Z,-5.55
2018-12-19T06:02:27.639Z,-5.59
2018-12-19T06:06:31.627Z,-5.57
2018-12-19T06:10:35.783Z,-5.62
2018-12-19T06:14:39.762Z,-5.67
2018-12-19T06:18:43.921Z,-5.71
2018-12-19T06:22:47.949Z,-5.80
2018-12-19T06:26:52.042Z,-5.86
2018-12-19T06:30:56.030Z,-5.88
2018-12-19T06:35:00.106Z,-5.89
2018-12-19T06:39:05.588Z,-5.92
2018-12-19T06:43:09.689Z,-5.91
2018-12-19T06:47:13.666Z,-5.90
2018-12-19T06:51:18.972Z,-5.77
2018-12-19T06:55:23.210Z,-5.67
2018-12-19T06:59:27.290Z,-5.27
2018-12-19T07:03:31.274Z,-4.85
2018-12-19T07:07:35.445Z,-5.02
2018-12-19T07:11:39.430Z,-4.87
2018-12-19T07:15:43.577Z,-4.70
2018-12-19T07:19:47.569Z,-4.98
2018-12-19T07:23:51.827Z,-4.85
2018-12-19T07:27:55.821Z,-4.25
2018-12-19T07:31:59.965Z,-4.58
2018-12-19T07:36:03.951Z,-4.65
2018-12-19T07:40:08.205Z,-4.42
2018-12-19T07:44:12.305Z,-4.37
2018-12-19T07:48:16.466Z,-4.21
2018-12-19T07:52:20.450Z,-4.08
2018-12-19T07:56:25.317Z,-4.02
2018-12-19T08:00:29.296Z,-4.06
2018-12-19T08:04:33.449Z,-3.88
2018-12-19T08:08:37.437Z,-3.78
2018-12-19T08:12:41.597Z,-3.78
2018-12-19T08:16:45.573Z,-3.69
2018-12-19T08:20:49.916Z,-3.56
2018-12-19T08:24:53.913Z,-3.32
2018-12-19T08:28:58.091Z,-3.17
2018-12-19T08:33:02.149Z,-3.10
2018-12-19T08:37:06.233Z,-3.00
2018-12-19T08:41:10.227Z,-2.72
2018-12-19T08:45:15.194Z,-2.66
2018-12-19T08:49:19.161Z,-2.67
2018-12-19T08:53:23.330Z,-2.73
2018-12-19T08:57:27.341Z,-2.74
2018-12-19T09:01:31.527Z,-2.74
2018-12-19T09:05:35.514Z,-2.66
2018-12-19T09:09:39.598Z,-2.54
2018-12-19T09:13:43.586Z,-2.22
2018-12-19T09:17:47.760Z,-2.22
2018-12-19T09:21:51.749Z,-1.94
2018-12-19T09:25:57.437Z,-1.74
2018-12-19T09:30:01.416Z,-1.51
2018-12-19T09:34:05.580Z,-1.44
2018-12-19T09:38:09.561Z,-1.22
2018-12-19T09:42:13.669Z,-1.05
2018-12-19T09:46:17.677Z,-0.77
2018-12-19T09:50:21.762Z,-0.47
2018-12-19T09:54:25.746Z,-0.31
2018-12-19T09:58:29.904Z,-0.17
2018-12-19T10:02:33.881Z,-0.13
2018-12-19T10:06:37.979Z,-0.10
2018-12-19T10:10:41.963Z,-0.13
2018-12-19T10:14:46.077Z,-0.02
2018-12-19T10:18:50.061Z,-0.07
2018-12-19T10:22:55.145Z,-0.14
2018-12-19T10:26:59.277Z,0.08
2018-12-19T10:31:03.400Z,0.26
2018-12-19T10:35:09.625Z,0.49
2018-12-19T10:39:15.119Z,0.76
2018-12-19T10:43:19.105Z,1.13
2018-12-19T10:47:23.262Z,1.43
2018-12-19T10:51:27.249Z,1.58
2018-12-19T10:55:31.401Z,1.42
2018-12-19T10:59:35.390Z,0.98
2018-12-19T11:03:39.507Z,0.76
2018-12-19T11:07:43.555Z,0.66
2018-12-19T11:11:47.688Z,0.43
2018-12-19T11:15:52.050Z,0.35
2018-12-19T11:19:56.246Z,0.14
2018-12-19T11:24:00.218Z,-0.07
2018-12-19T11:28:04.578Z,-0.38
2018-12-19T11:32:08.579Z,-0.55
2018-12-19T11:36:12.726Z,-0.77
2018-12-19T11:40:16.734Z,-0.84
2018-12-19T11:44:20.872Z,-0.94
2018-12-19T11:48:24.853Z,-1.04
2018-12-19T11:52:29.017Z,-1.09
2018-12-19T11:56:33.010Z,-1.13
2018-12-19T12:00:37.155Z,-1.17
2018-12-19T12:04:41.133Z,-1.28
2018-12-19T12:08:45.297Z,-1.32
2018-12-19T12:12:49.340Z,-1.26
2018-12-19T12:16:53.639Z,-1.28
2018-12-19T12:20:57.633Z,-1.37
2018-12-19T12:25:01.787Z,-1.31
2018-12-19T12:29:05.821Z,-1.30
2018-12-19T12:33:09.931Z,-1.33
2018-12-19T12:37:13.910Z,-1.50
2018-12-19T12:41:18.127Z,-1.60
2018-12-19T12:45:22.161Z,-1.69
2018-12-19T12:49:26.260Z,-1.72
2018-12-19T12:53:30.243Z,-1.71
2018-12-19T12:57:34.358Z,-1.66
2018-12-19T13:01:38.353Z,-1.65
2018-12-19T13:05:42.498Z,-1.67
2018-12-19T13:09:46.482Z,-1.75
2018-12-19T13:13:50.650Z,-1.82
2018-12-19T13:17:54.914Z,-1.91
2018-12-19T13:21:59.093Z,-1.95
2018-12-19T13:26:03.069Z,-2.02
2018-12-19T13:30:08.790Z,-2.05
2018-12-19T13:34:12.767Z,-2.11
2018-12-19T13:38:16.855Z,-2.14
2018-12-19T13:42:20.846Z,-2.19
2018-12-19T13:46:24.958Z,-2.25
2018-12-19T13:50:28.930Z,-2.36
2018-12-19T13:54:33.086Z,-2.42
2018-12-19T13:58:37.969Z,-2.51
2018-12-19T14:02:42.053Z,-2.56
2018-12-19T14:06:46.029Z,-2.63
2018-12-19T14:10:51.166Z,-2.68
2018-12-19T14:14:55.149Z,-2.70
2018-12-19T14:18:59.267Z,-2.78
2018-12-19T14:23:03.242Z,-2.75
2018-12-19T14:27:07.505Z,-2.77
2018-12-19T14:31:11.533Z,-2.82
2018-12-19T14:35:15.648Z,-2.90
2018-12-19T14:39:19.640Z,-2.96
2018-12-19T14:43:23.789Z,-3.01
2018-12-19T14:47:27.785Z,-3.03
2018-12-19T14:51:31.954Z,-3.10
2018-12-19T14:55:35.995Z,-3.08
2018-12-19T14:59:40.174Z,-3.11
2018-12-19T15:03:44.159Z,-3.19
2018-12-19T15:07:48.317Z,-3.27
2018-12-19T15:11:52.298Z,-3.31
2018-12-19T15:16:03.639Z,-3.31
2018-12-19T15:20:07.625Z,-3.31
2018-12-19T15:24:11.777Z,-3.26
2018-12-19T15:28:15.774Z,-3.35
2018-12-19T15:32:20.235Z,-3.33
2018-12-19T15:36:24.198Z,-3.34
2018-12-19T15:40:28.377Z,-3.38
2018-12-19T15:44:32.345Z,-3.40
2018-12-19T15:48:36.510Z,-3.33
2018-12-19T15:52:40.494Z,-3.29
2018-12-19T15:56:44.753Z,-3.27
2018-12-19T16:00:48.741Z,-3.28
2018-12-19T16:04:52.900Z,-3.38
2018-12-19T16:08:56.890Z,-3.47
2018-12-19T16:13:01.038Z,-3.53
2018-12-19T16:17:05.050Z,-3.51
2018-12-19T16:21:09.177Z,-3.51
2018-12-19T16:25:13.162Z,-3.54
2018-12-19T16:29:17.321Z,-3.61
2018-12-19T16:33:21.366Z,-3.57
2018-12-19T16:37:25.470Z,-3.64
2018-12-19T16:41:29.454Z,-3.72
2018-12-19T16:45:33.611Z,-3.76
2018-12-19T16:49:37.622Z,-3.78
2018-12-19T16:53:41.761Z,-3.82
2018-12-19T16:57:45.760Z,-3.82
2018-12-19T17:01:49.893Z,-3.88
2018-12-19T17:05:53.878Z,-3.95
2018-12-19T17:09:58.033Z,-3.98
2018-12-19T17:14:02.126Z,-4.02
2018-12-19T17:18:06.277Z,-3.98
2018-12-19T17:22:10.331Z,-4.04
2018-12-19T17:26:14.739Z,-4.06
2018-12-19T17:30:18.718Z,-4.19
2018-12-19T17:34:22.973Z,-4.24
2018-12-19T17:38:26.963Z,-4.28
2018-12-19T17:42:31.146Z,-4.31
2018-12-19T17:46:35.133Z,-4.35
2018-12-19T17:50:39.257Z,-4.36
2018-12-19T17:54:43.246Z,-4.38
2018-12-19T17:58:47.610Z,-4.33
2018-12-19T18:02:51.593Z,-4.35
2018-12-19T18:06:55.746Z,-4.34
2018-12-19T18:10:59.733Z,-4.35
2018-12-19T18:15:03.889Z,-4.32
2018-12-19T18:19:07.882Z,-4.34
2018-12-19T18:23:12.034Z,-4.31
2018-12-19T18:27:16.032Z,-4.32
2018-12-19T18:31:20.177Z,-4.33
2018-12-19T18:35:24.222Z,-4.37
2018-12-19T18:39:28.331Z,-4.44
2018-12-19T18:43:32.317Z,-4.46
2018-12-19T18:47:36.566Z,-4.43
2018-12-19T18:51:40.559Z,-4.42
2018-12-19T18:55:44.813Z,-4.42
2018-12-19T18:59:48.809Z,-4.38
2018-12-19T19:03:52.965Z,-4.44
2018-12-19T19:07:56.963Z,-4.44
2018-12-19T19:12:01.094Z,-4.34
2018-12-19T19:16:05.165Z,-4.24
2018-12-19T19:20:09.338Z,-4.15
2018-12-19T19:24:13.333Z,-4.11
2018-12-19T19:28:17.494Z,-4.07
2018-12-19T19:32:22.291Z,-4.09
2018-12-19T19:36:26.548Z,-4.06
2018-12-19T19:40:30.538Z,-4.02
2018-12-19T19:44:34.633Z,-4.09
2018-12-19T19:48:38.617Z,-4.11
2018-12-19T19:52:42.690Z,-4.17
2018-12-19T19:56:46.696Z,-4.20
2018-12-19T20:00:50.774Z,-4.25
2018-12-19T20:04:54.755Z,-4.28
2018-12-19T20:08:58.915Z,-4.25
2018-12-19T20:13:02.893Z,-4.24
2018-12-19T20:17:07.053Z,-4.27
2018-12-19T20:21:11.038Z,-4.30
2018-12-19T20:25:15.299Z,-4.40
2018-12-19T20:29:19.327Z,-4.41
2018-12-19T20:33:23.402Z,-4.43
2018-12-19T20:37:27.478Z,-4.48
2018-12-19T20:41:31.574Z,-4.43
2018-12-19T20:45:35.570Z,-4.43
2018-12-19T20:49:39.725Z,-4.44
2018-12-19T20:53:43.725Z,-4.49
2018-12-19T20:57:47.803Z,-4.60
2018-12-19T21:01:51.789Z,-4.65
2018-12-19T21:05:55.910Z,-4.65
2018-12-19T21:09:59.901Z,-4.61
2018-12-19T21:14:04.049Z,-4.54
2018-12-19T21:18:13.542Z,-4.51
2018-12-19T21:22:17.721Z,-4.51
2018-12-19T21:26:21.723Z,-4.51
2018-12-19T21:30:25.866Z,-4.48
2018-12-19T21:34:29.862Z,-4.52
2018-12-19T21:38:34.029Z,-4.50
2018-12-19T21:42:38.501Z,-4.54
2018-12-19T21:46:42.665Z,-4.54
2018-12-19T21:50:46.773Z,-4.59
2018-12-19T21:54:50.905Z,-4.62
2018-12-19T21:58:54.898Z,-4.64
2018-12-19T22:03:01.075Z,-4.67
2018-12-19T22:07:05.061Z,-4.64
2018-12-19T22:11:09.238Z,-4.67
2018-12-19T22:15:14.255Z,-4.69
2018-12-19T22:19:18.610Z,-4.70
2018-12-19T22:23:22.663Z,-4.69
2018-12-19T22:27:26.861Z,-4.65
2018-12-19T22:31:30.863Z,-4.56
2018-12-19T22:35:35.105Z,-4.56
2018-12-19T22:39:39.092Z,-4.52
2018-12-19T22:43:43.248Z,-4.51
2018-12-19T22:47:47.325Z,-4.51
2018-12-19T22:51:51.500Z,-4.49
2018-12-19T22:55:55.572Z,-4.46
2018-12-19T22:59:59.947Z,-4.47
2018-12-19T23:04:07.226Z,-4.42
2018-12-19T23:08:11.335Z,-4.39
2018-12-19T23:12:15.485Z,-4.35
2018-12-19T23:16:19.606Z,-4.38
2018-12-19T23:20:23.653Z,-4.38
2018-12-19T23:24:27.926Z,-4.32
2018-12-19T23:28:31.958Z,-4.32
2018-12-19T23:32:36.871Z,-4.30
2018-12-19T23:36:40.990Z,-4.30
2018-12-19T23:40:45.261Z,-4.29
2018-12-19T23:44:49.245Z,-4.26
2018-12-19T23:48:53.516Z,-4.28
2018-12-19T23:52:57.590Z,-4.29
2018-12-19T23:57:01.746Z,-4.27
